Tuesday, August 30, 2016, 2:42 PM EDT

KUNV, State College, University Park Airport

Location: State College, PA, United States Lat: 40.85
Local Time: 2:42 PM EDT (18:42 GMT) Lon: -77.85
Time Zone: US/Eastern Elev: 1240 ft

Show me the last for .
Show Decoded

2016-08-30 13:53 METAR KUNV 301753Z 00000KT 10SM SCT042 26/16 A3016 =
2016-08-30 12:53 METAR KUNV 301653Z 00000KT 10SM SCT085 25/17 A3019 =
2016-08-30 11:53 METAR KUNV 301553Z AUTO 00000KT 10SM SCT085 SCT100 24/16 A3019 =
2016-08-30 10:53 METAR KUNV 301453Z COR 00000KT 10SM SKC 22/18 A3021 =
2016-08-30 09:53 METAR KUNV 301353Z 00000KT 10SM SKC 20/17 A3022 =
2016-08-30 08:53 METAR KUNV 301253Z 00000KT 10SM SKC 17/16 A3022 =
2016-08-30 07:53 METAR KUNV 301153Z 00000KT 10SM SKC 15/15 A3022 =
2016-08-30 06:53 METAR KUNV 301053Z 00000KT 10SM SKC 14/14 A3022 =
2016-08-30 05:53 METAR KUNV 300953Z 00000KT 10SM SKC 15/15 A3021 =
2016-08-30 05:35 METAR KUNV 300935Z AUTO 00000KT 1SM BR SCT049 BKN100 15/15 A3021 RMK AO2
                 T01470145 =
2016-08-30 05:15 METAR KUNV 300915Z AUTO 00000KT 1/2SM FG SCT049 SCT070 BKN100 15/15 A3021 RMK
                 AO2 T01520151 =
2016-08-30 04:55 METAR KUNV 300855Z AUTO 00000KT 2 1/2SM BR SCT065 SCT075 SCT085 16/16 A3020 RMK
                 AO2 T01560155 =
2016-08-30 04:35 METAR KUNV 300835Z AUTO 00000KT 7SM SCT075 SCT085 16/16 A3020 RMK AO2 T01560155
                 =
2016-08-30 04:15 METAR KUNV 300815Z AUTO 00000KT 4SM BR SCT060 SCT070 SCT090 16/15 A3021 RMK AO2
                 T01560152 =
2016-08-30 03:55 METAR KUNV 300755Z AUTO 00000KT 10SM SCT070 SCT080 16/15 A3021 RMK AO2 T01570153
                 =
2016-08-30 03:35 METAR KUNV 300735Z AUTO 00000KT 10SM SCT070 SCT080 17/16 A3021 RMK AO2 T01660157
                 =
2016-08-30 03:15 METAR KUNV 300715Z AUTO 00000KT 10SM SCT060 SCT080 SCT110 16/16 A3020 RMK AO2
                 T01640158 =
2016-08-30 02:55 METAR KUNV 300655Z AUTO 00000KT 10SM SCT060 SCT095 BKN110 17/16 A3021 RMK AO2
                 T01660159 =
2016-08-30 02:35 METAR KUNV 300635Z AUTO 00000KT 10SM SCT070 SCT085 16/16 A3021 RMK AO2 T01620157
                 =
2016-08-30 02:15 METAR KUNV 300615Z AUTO 00000KT 10SM SCT070 SCT085 16/16 A3020 RMK AO2 T01640156
                 =
2016-08-30 01:55 METAR KUNV 300555Z AUTO 00000KT 10SM SCT070 SCT085 SCT110 18/16 A3021 RMK AO2
                 T01770160 10250 20171 =
2016-08-30 01:35 METAR KUNV 300535Z AUTO 00000KT 10SM CLR 18/16 A3021 RMK AO2 T01800160 =
2016-08-30 01:15 METAR KUNV 300515Z AUTO 00000KT 10SM SCT065 SCT080 18/16 A3020 RMK AO2 T01750161
                 =
2016-08-30 00:55 METAR KUNV 300455Z AUTO 00000KT 10SM SCT065 SCT075 SCT090 18/16 A3021 RMK AO2
                 T01770160 =
2016-08-30 00:35 METAR KUNV 300435Z AUTO 00000KT 10SM SCT065 SCT080 17/16 A3021 RMK AO2 T01740159
                 =
2016-08-30 00:15 METAR KUNV 300415Z AUTO 00000KT 10SM SCT065 18/16 A3021 RMK AO2 T01820160 =
2016-08-29 23:55 METAR KUNV 300355Z AUTO 00000KT 10SM CLR 20/16 A3021 RMK AO2 T02000158 402910174
                 =
2016-08-29 23:35 METAR KUNV 300335Z AUTO 35003KT 10SM SCT055 SCT070 SCT085 20/16 A3021 RMK AO2
                 T02040160 =
2016-08-29 23:15 METAR KUNV 300315Z AUTO 00000KT 10SM CLR 20/16 A3021 RMK AO2 T01960157 =
2016-08-29 22:55 METAR KUNV 300255Z AUTO 00000KT 10SM SCT070 SCT085 21/16 A3020 RMK AO2 T02120158
                 =
2016-08-29 22:35 METAR KUNV 300235Z AUTO 00000KT 10SM SCT065 SCT085 21/16 A3021 RMK AO2 T02050160
                 =
2016-08-29 22:15 METAR KUNV 300215Z AUTO 04005KT 10SM SCT060 SCT075 SCT085 21/16 A3021 RMK AO2
                 T02120157 =
2016-08-29 21:55 METAR KUNV 300155Z AUTO 08004KT 10SM SCT060 SCT075 21/15 A3021 RMK AO2 T02090153
                 =
2016-08-29 20:53 METAR KUNV 300053Z 00000KT 10SM SKC 22/16 A3019 =
2016-08-29 19:53 METAR KUNV 292353Z 00000KT 10SM SKC 25/15 A3018 =
2016-08-29 18:53 METAR KUNV 292253Z 00000KT 10SM SKC 26/15 A3017 =
2016-08-29 17:53 METAR KUNV 292153Z 30006KT 10SM SKC 28/16 A3017 =
2016-08-29 16:53 METAR KUNV 292053Z 28005KT 10SM SKC 29/16 A3017 =
2016-08-29 15:53 METAR KUNV 291953Z 00000KT 10SM FEW035 28/16 A3019 =
2016-08-29 14:53 METAR KUNV 291853Z 00000KT 10SM SCT035 28/16 A3021 =

Support USWX by starting your Amazon purchase here.